Flight Track Log - Related Links

Times and Time Zones

All times are in EDT time to prevent confusion due to time zone crossing. See the DAL146 flight status page for this flight to view local times or setup timezone preferences in your user account.


Time Position Orientation Groundspeed Altitude Reporting Facility
EDT Latitude Longitude Course Direction KTS MPH feet Rate Location/Type
Tue 07:48:00 PM -33.2743 -70.8069 352° North  Level FlightAware Approximate
Tue 07:49:00 PM -33.1557 -70.8279 352° North  Level FlightAware Approximate
Tue 07:50:00 PM -33.0371 -70.8489 352° North  Level FlightAware Approximate
Tue 07:51:00 PM -32.9185 -70.8698 352° North  Level FlightAware Approximate
Tue 07:52:00 PM -32.8018 -70.8903 352° North  Level FlightAware Approximate
Tue 07:53:00 PM -32.6852 -70.9108 352° North  Level FlightAware Approximate
Tue 07:54:00 PM -32.5686 -70.9312 352° North  Level FlightAware Approximate
Tue 07:55:00 PM -32.4519 -70.9515 352° North  Level FlightAware Approximate
Tue 07:56:00 PM -32.3353 -70.9718 352° North  Level FlightAware Approximate
Tue 07:57:00 PM -32.2187 -70.9921 352° North  Level FlightAware Approximate
Tue 07:58:00 PM -32.1020 -71.0123 352° North  Level FlightAware Approximate
Tue 07:59:00 PM -31.9853 -71.0324 352° North  Level FlightAware Approximate
Tue 08:00:00 PM -31.8617 -71.0539 351° North  Level FlightAware Approximate
Tue 08:01:00 PM -31.7452 -71.0751 351° North  Level FlightAware Approximate
Tue 08:02:00 PM -31.6287 -71.0962 351° North  Level FlightAware Approximate
Tue 08:03:00 PM -31.5122 -71.1173 351° North  Level FlightAware Approximate
Tue 08:04:00 PM -31.3957 -71.1383 351° North  Level FlightAware Approximate
Tue 08:05:00 PM -31.2792 -71.1592 351° North  Level FlightAware Approximate
Tue 08:06:00 PM -31.1598 -71.1807 351° North  Level FlightAware Approximate
Tue 08:07:00 PM -31.0404 -71.2020 351° North  Level FlightAware Approximate
Tue 08:08:00 PM -30.9211 -71.2233 351° North  Level FlightAware Approximate
Tue 08:09:00 PM -30.8017 -71.2446 351° North  Level FlightAware Approximate
Tue 08:10:00 PM -30.6823 -71.2658 351° North  Level FlightAware Approximate
Tue 08:11:00 PM -30.5629 -71.2869 351° North  Level FlightAware Approximate
Tue 08:12:00 PM -30.4436 -71.3080 351° North  Level FlightAware Approximate
Tue 08:13:00 PM -30.3242 -71.3291 351° North  Level FlightAware Approximate
Tue 08:14:00 PM -30.2048 -71.3501 351° North  Level FlightAware Approximate
Tue 08:15:00 PM -30.0854 -71.3710 351° North  Level FlightAware Approximate
Tue 08:16:00 PM -29.9660 -71.3919 351° North  Level FlightAware Approximate
Tue 08:17:00 PM -29.8466 -71.4127 351° North  Level FlightAware Approximate
Tue 08:18:00 PM -29.7272 -71.4335 351° North  Level FlightAware Approximate
Tue 08:19:00 PM -29.6078 -71.4543 351° North  Level FlightAware Approximate
Tue 08:20:00 PM -29.4884 -71.4750 351° North  Level FlightAware Approximate
Tue 08:21:00 PM -29.3690 -71.4956 351° North  Level FlightAware Approximate
Tue 08:22:00 PM -29.2496 -71.5162 351° North  Level FlightAware Approximate
Tue 08:23:00 PM -29.1302 -71.5368 351° North  Level FlightAware Approximate
Tue 08:24:00 PM -29.0107 -71.5573 351° North  Level FlightAware Approximate
Tue 08:25:00 PM -28.8913 -71.5777 351° North  Level FlightAware Approximate
Tue 08:26:00 PM -28.7719 -71.5981 351° North  Level FlightAware Approximate
Tue 08:27:00 PM -28.6525 -71.6185 351° North  Level FlightAware Approximate
Tue 08:28:00 PM -28.5330 -71.6388 352° North  Level FlightAware Approximate
Tue 08:29:00 PM -28.4136 -71.6591 352° North  Level FlightAware Approximate
Tue 08:30:00 PM -28.2941 -71.6793 352° North  Level FlightAware Approximate
Tue 08:31:00 PM -28.1747 -71.6995 352° North  Level FlightAware Approximate
Tue 08:32:00 PM -28.0553 -71.7196 352° North  Level FlightAware Approximate
Tue 08:33:00 PM -27.9358 -71.7397 352° North  Level FlightAware Approximate
Tue 08:34:00 PM -27.8164 -71.7597 352° North  Level FlightAware Approximate
Tue 08:35:00 PM -27.6969 -71.7797 352° North  Level FlightAware Approximate
Tue 08:36:00 PM -27.5775 -71.7997 352° North  Level FlightAware Approximate
Tue 08:37:00 PM -27.4580 -71.8196 352° North  Level FlightAware Approximate
Tue 08:38:00 PM -27.3385 -71.8395 352° North  Level FlightAware Approximate
Tue 08:39:00 PM -27.2191 -71.8593 352° North  Level FlightAware Approximate
Tue 08:40:00 PM -27.0996 -71.8791 352° North  Level FlightAware Approximate
Tue 08:41:00 PM -26.9801 -71.8988 352° North  Level FlightAware Approximate
Tue 08:42:00 PM -26.8607 -71.9185 352° North  Level FlightAware Approximate
Tue 08:43:00 PM -26.7412 -71.9382 352° North  Level FlightAware Approximate
Tue 08:44:00 PM -26.6217 -71.9578 352° North  Level FlightAware Approximate
Tue 08:45:00 PM -26.5022 -71.9774 352° North  Level FlightAware Approximate
Tue 08:46:00 PM -26.3827 -71.9969 352° North  Level FlightAware Approximate
Tue 08:47:00 PM -26.2633 -72.0164 352° North  Level FlightAware Approximate
Tue 08:48:00 PM -26.1438 -72.0358 352° North  Level FlightAware Approximate
Tue 08:49:00 PM -26.0243 -72.0553 352° North  Level FlightAware Approximate
Tue 08:50:00 PM -25.9048 -72.0746 352° North  Level FlightAware Approximate
Tue 08:51:00 PM -25.7853 -72.0940 352° North  Level FlightAware Approximate
Tue 08:52:00 PM -25.6658 -72.1133 352° North  Level FlightAware Approximate
Tue 08:53:00 PM -25.5463 -72.1325 352° North  Level FlightAware Approximate
Tue 08:54:00 PM -25.4268 -72.1517 352° North  Level FlightAware Approximate
Tue 08:55:00 PM -25.3073 -72.1709 352° North  Level FlightAware Approximate
Tue 08:56:00 PM -25.1878 -72.1901 352° North  Level FlightAware Approximate
Tue 08:57:00 PM -25.0683 -72.2092 352° North  Level FlightAware Approximate
Tue 08:58:00 PM -24.9487 -72.2282 352° North  Level FlightAware Approximate
Tue 08:59:00 PM -24.8292 -72.2473 352° North  Level FlightAware Approximate
Tue 09:00:00 PM -24.7097 -72.2663 352° North  Level FlightAware Approximate
Tue 09:01:00 PM -24.5902 -72.2852 352° North  Level FlightAware Approximate
Tue 09:02:00 PM -24.4707 -72.3042 352° North  Level FlightAware Approximate
Tue 09:03:00 PM -24.3511 -72.3231 352° North  Level FlightAware Approximate
Tue 09:04:00 PM -24.2322 -72.3418 352° North  Level FlightAware Approximate
Tue 09:05:00 PM -24.1133 -72.3605 352° North  Level FlightAware Approximate
Tue 09:06:00 PM -23.9944 -72.3792 352° North  Level FlightAware Approximate
Tue 09:07:00 PM -23.8755 -72.3979 352° North  Level FlightAware Approximate
Tue 09:08:00 PM -23.7566 -72.4165 352° North  Level FlightAware Approximate
Tue 09:09:00 PM -23.6376 -72.4351 352° North  Level FlightAware Approximate
Tue 09:10:00 PM -23.5187 -72.4536 352° North  Level FlightAware Approximate
Tue 09:11:00 PM -23.3998 -72.4721 352° North  Level FlightAware Approximate
Tue 09:12:00 PM -23.2809 -72.4906 352° North  Level FlightAware Approximate
Tue 09:13:00 PM -23.1619 -72.5090 352° North  Level FlightAware Approximate
Tue 09:14:00 PM -23.0430 -72.5275 352° North  Level FlightAware Approximate
Tue 09:15:00 PM -22.9241 -72.5458 352° North  Level FlightAware Approximate
Tue 09:16:00 PM -22.8051 -72.5642 352° North  Level FlightAware Approximate
Tue 09:17:00 PM -22.6862 -72.5825 352° North  Level FlightAware Approximate
Tue 09:18:00 PM -22.5673 -72.6008 352° North  Level FlightAware Approximate
Tue 09:19:00 PM -22.4483 -72.6191 352° North  Level FlightAware Approximate
Tue 09:20:00 PM -22.3294 -72.6373 352° North  Level FlightAware Approximate
Tue 09:21:00 PM -22.2104 -72.6555 352° North  Level FlightAware Approximate
Tue 09:22:00 PM -22.0915 -72.6736 352° North  Level FlightAware Approximate
Tue 09:23:00 PM -21.9725 -72.6918 352° North  Level FlightAware Approximate
Tue 09:24:00 PM -21.8536 -72.7099 352° North  Level FlightAware Approximate
Tue 09:25:00 PM -21.7346 -72.7279 352° North  Level FlightAware Approximate
Tue 09:26:00 PM -21.6157 -72.7460 352° North  Level FlightAware Approximate
Tue 09:27:00 PM -21.4967 -72.7640 352° North  Level FlightAware Approximate
Tue 09:28:00 PM -21.3778 -72.7820 352° North  Level FlightAware Approximate
Tue 09:29:00 PM -21.2588 -72.7999 352° North  Level FlightAware Approximate
Tue 09:30:00 PM -21.1398 -72.8178 352° North  Level FlightAware Approximate
Tue 09:31:00 PM -21.0209 -72.8357 352° North  Level FlightAware Approximate
Tue 09:32:00 PM -20.9019 -72.8536 352° North  Level FlightAware Approximate
Tue 09:33:00 PM -20.7829 -72.8714 352° North  Level FlightAware Approximate
Tue 09:34:00 PM -20.6640 -72.8893 352° North  Level FlightAware Approximate
Tue 09:35:00 PM -20.5450 -72.9070 352° North  Level FlightAware Approximate
Tue 09:36:00 PM -20.4260 -72.9248 352° North  Level FlightAware Approximate
Tue 09:37:00 PM -20.3071 -72.9425 352° North  Level FlightAware Approximate
Tue 09:38:00 PM -20.1881 -72.9602 352° North  Level FlightAware Approximate
Tue 09:39:00 PM -20.0691 -72.9779 352° North  Level FlightAware Approximate
Tue 09:40:00 PM -19.9501 -72.9955 352° North  Level FlightAware Approximate
Tue 09:41:00 PM -19.8311 -73.0132 352° North  Level FlightAware Approximate
Tue 09:42:00 PM -19.7122 -73.0307 352° North  Level FlightAware Approximate
Tue 09:43:00 PM -19.5932 -73.0483 352° North  Level FlightAware Approximate
Tue 09:44:00 PM -19.4742 -73.0658 352° North  Level FlightAware Approximate
Tue 09:45:00 PM -19.3552 -73.0834 352° North  Level FlightAware Approximate
Tue 09:46:00 PM -19.2362 -73.1009 352° North  Level FlightAware Approximate
Tue 09:47:00 PM -19.1172 -73.1183 352° North  Level FlightAware Approximate
Tue 09:48:00 PM -18.9982 -73.1358 352° North  Level FlightAware Approximate
Tue 09:49:00 PM -18.8792 -73.1532 352° North  Level FlightAware Approximate
Tue 09:50:00 PM -18.7602 -73.1706 352° North  Level FlightAware Approximate
Tue 09:51:00 PM -18.6412 -73.1879 352° North  Level FlightAware Approximate
Tue 09:52:00 PM -18.5222 -73.2053 352° North  Level FlightAware Approximate
Tue 09:53:00 PM -18.4032 -73.2226 352° North  Level FlightAware Approximate
Tue 09:54:00 PM -18.2842 -73.2399 352° North  Level FlightAware Approximate
Tue 09:55:00 PM -18.1652 -73.2571 352° North  Level FlightAware Approximate
Tue 09:56:00 PM -18.0462 -73.2744 352° North  Level FlightAware Approximate
Tue 09:57:00 PM -17.9272 -73.2916 352° North  Level FlightAware Approximate
Tue 09:58:00 PM -17.8082 -73.3088 352° North  Level FlightAware Approximate
Tue 09:59:00 PM -17.6892 -73.3260 352° North  Level FlightAware Approximate
Tue 10:00:00 PM -17.5702 -73.3431 352° North  Level FlightAware Approximate
Tue 10:01:00 PM -17.4511 -73.3603 352° North  Level FlightAware Approximate
Tue 10:02:00 PM -17.3321 -73.3774 352° North  Level FlightAware Approximate
Tue 10:03:00 PM -17.2131 -73.3945 352° North  Level FlightAware Approximate
Tue 10:04:00 PM -17.0941 -73.4115 352° North  Level FlightAware Approximate
Tue 10:05:00 PM -16.9750 -73.4286 352° North  Level FlightAware Approximate
Tue 10:06:00 PM -16.8560 -73.4456 352° North  Level FlightAware Approximate
Tue 10:07:00 PM -16.7370 -73.4626 352° North  Level FlightAware Approximate
Tue 10:08:00 PM -16.6180 -73.4796 352° North  Level FlightAware Approximate
Tue 10:09:00 PM -16.4990 -73.4965 352° North  Level FlightAware Approximate
Tue 10:10:00 PM -16.3799 -73.5135 352° North  Level FlightAware Approximate
Tue 10:11:00 PM -16.2609 -73.5304 352° North  Level FlightAware Approximate
Tue 10:12:00 PM -16.1419 -73.5473 352° North  Level FlightAware Approximate
Tue 10:13:00 PM -16.0228 -73.5642 352° North  Level FlightAware Approximate
Tue 10:14:00 PM -15.9038 -73.5810 352° North  Level FlightAware Approximate
Tue 10:15:00 PM -15.7848 -73.5978 352° North  Level FlightAware Approximate
Tue 10:16:00 PM -15.6657 -73.6147 352° North  Level FlightAware Approximate
Tue 10:17:00 PM -15.5467 -73.6315 352° North  Level FlightAware Approximate
Tue 10:18:00 PM -15.4277 -73.6482 352° North  Level FlightAware Approximate
Tue 10:19:00 PM -15.3086 -73.6650 352° North  Level FlightAware Approximate
Tue 10:20:00 PM -15.1896 -73.6817 352° North  Level FlightAware Approximate
Tue 10:21:00 PM -15.0705 -73.6985 352° North  Level FlightAware Approximate
Tue 10:22:00 PM -14.9515 -73.7152 352° North  Level FlightAware Approximate
Tue 10:23:00 PM -14.8325 -73.7318 352° North  Level FlightAware Approximate
Tue 10:24:00 PM -14.7134 -73.7485 352° North  Level FlightAware Approximate
Tue 10:25:00 PM -14.5944 -73.7652 352° North  Level FlightAware Approximate
Tue 10:26:00 PM -14.4753 -73.7818 352° North  Level FlightAware Approximate
Tue 10:27:00 PM -14.3563 -73.7984 352° North  Level FlightAware Approximate
Tue 10:28:00 PM -14.2372 -73.8150 352° North  Level FlightAware Approximate
Tue 10:29:00 PM -14.1182 -73.8316 352° North  Level FlightAware Approximate
Tue 10:30:00 PM -13.9991 -73.8481 352° North  Level FlightAware Approximate
Tue 10:31:00 PM -13.8801 -73.8647 352° North  Level FlightAware Approximate
Tue 10:32:00 PM -13.7610 -73.8812 352° North  Level FlightAware Approximate
Tue 10:33:00 PM -13.6419 -73.8977 352° North  Level FlightAware Approximate
Tue 10:34:00 PM -13.5235 -73.9141 352° North  Level FlightAware Approximate
Tue 10:35:00 PM -13.4051 -73.9305 352° North  Level FlightAware Approximate
Tue 10:36:00 PM -13.2866 -73.9469 352° North  Level FlightAware Approximate
Tue 10:37:00 PM -13.1682 -73.9632 352° North  Level FlightAware Approximate
Tue 10:38:00 PM -13.0497 -73.9796 352° North  Level FlightAware Approximate
Tue 10:39:00 PM -12.9313 -73.9959 352° North  Level FlightAware Approximate
Tue 10:40:00 PM -12.8128 -74.0122 352° North  Level FlightAware Approximate
Tue 10:41:00 PM -12.6944 -74.0285 352° North  Level FlightAware Approximate
Tue 10:42:00 PM -12.5759 -74.0447 352° North  Level FlightAware Approximate
Tue 10:43:00 PM -12.4575 -74.0610 352° North  Level FlightAware Approximate
Tue 10:44:00 PM -12.3390 -74.0773 352° North  Level FlightAware Approximate
Tue 10:45:00 PM -12.2206 -74.0935 352° North  Level FlightAware Approximate
Tue 10:46:00 PM -12.1021 -74.1097 352° North  Level FlightAware Approximate
Tue 10:47:00 PM -11.9837 -74.1259 352° North  Level FlightAware Approximate
Tue 10:48:00 PM -11.8652 -74.1421 352° North  Level FlightAware Approximate
Tue 10:49:00 PM -11.7467 -74.1583 352° North  Level FlightAware Approximate
Tue 10:50:00 PM -11.6283 -74.1745 352° North  Level FlightAware Approximate
Tue 10:51:00 PM -11.5098 -74.1906 352° North  Level FlightAware Approximate
Tue 10:52:00 PM -11.3913 -74.2067 352° North  Level FlightAware Approximate
Tue 10:53:00 PM -11.2729 -74.2229 352° North  Level FlightAware Approximate
Tue 10:54:00 PM -11.1544 -74.2390 352° North  Level FlightAware Approximate
Tue 10:55:00 PM -11.0360 -74.2551 352° North  Level FlightAware Approximate
Tue 10:56:00 PM -10.9175 -74.2711 352° North  Level FlightAware Approximate
Tue 10:57:00 PM -10.7990 -74.2872 352° North  Level FlightAware Approximate
Tue 10:58:00 PM -10.6806 -74.3033 352° North  Level FlightAware Approximate
Tue 10:59:00 PM -10.5621 -74.3193 352° North  Level FlightAware Approximate
Tue 11:00:00 PM -10.4436 -74.3354 352° North  Level FlightAware Approximate
Tue 11:01:00 PM -10.3252 -74.3514 352° North  Level FlightAware Approximate
Tue 11:02:00 PM -10.2067 -74.3674 352° North  Level FlightAware Approximate
Tue 11:03:00 PM -10.0882 -74.3834 352° North  Level FlightAware Approximate
Tue 11:04:00 PM -9.9698 -74.3994 352° North  Level FlightAware Approximate
Tue 11:05:00 PM -9.8513 -74.4153 352° North  Level FlightAware Approximate
Tue 11:06:00 PM -9.7328 -74.4313 352° North  Level FlightAware Approximate
Tue 11:07:00 PM -9.6143 -74.4472 352° North  Level FlightAware Approximate
Tue 11:08:00 PM -9.4959 -74.4632 352° North  Level FlightAware Approximate
Tue 11:09:00 PM -9.3774 -74.4791 352° North  Level FlightAware Approximate
Tue 11:10:00 PM -9.2589 -74.4950 352° North  Level FlightAware Approximate
Tue 11:11:00 PM -9.1404 -74.5109 352° North  Level FlightAware Approximate
Tue 11:12:00 PM -9.0220 -74.5268 352° North  Level FlightAware Approximate
Tue 11:13:00 PM -8.9035 -74.5427 352° North  Level FlightAware Approximate
Tue 11:14:00 PM -8.7850 -74.5586 352° North  Level FlightAware Approximate
Tue 11:15:00 PM -8.6665 -74.5745 352° North  Level FlightAware Approximate
Tue 11:16:00 PM -8.5480 -74.5903 352° North  Level FlightAware Approximate
Tue 11:17:00 PM -8.4296 -74.6062 352° North  Level FlightAware Approximate
Tue 11:18:00 PM -8.3111 -74.6220 352° North  Level FlightAware Approximate
Tue 11:19:00 PM -8.1926 -74.6378 352° North  Level FlightAware Approximate
Tue 11:20:00 PM -8.0741 -74.6536 352° North  Level FlightAware Approximate
Tue 11:21:00 PM -7.9556 -74.6695 352° North  Level FlightAware Approximate
Tue 11:22:00 PM -7.8372 -74.6853 352° North  Level FlightAware Approximate
Tue 11:23:00 PM -7.7187 -74.7010 352° North  Level FlightAware Approximate
Tue 11:24:00 PM -7.6002 -74.7168 352° North  Level FlightAware Approximate
Tue 11:25:00 PM -7.4817 -74.7326 352° North  Level FlightAware Approximate
Tue 11:26:00 PM -7.3632 -74.7484 352° North  Level FlightAware Approximate
Tue 11:27:00 PM -7.2447 -74.7641 352° North  Level FlightAware Approximate
Tue 11:28:00 PM -7.1262 -74.7799 352° North  Level FlightAware Approximate
Tue 11:29:00 PM -7.0078 -74.7956 352° North  Level FlightAware Approximate
Tue 11:30:00 PM -6.8893 -74.8113 352° North  Level FlightAware Approximate
Tue 11:31:00 PM -6.7708 -74.8270 352° North  Level FlightAware Approximate
Tue 11:32:00 PM -6.6523 -74.8428 352° North  Level FlightAware Approximate
Tue 11:33:00 PM -6.5338 -74.8585 352° North  Level FlightAware Approximate
Tue 11:34:00 PM -6.4153 -74.8742 352° North  Level FlightAware Approximate
Tue 11:35:00 PM -6.2968 -74.8899 353° North  Level FlightAware Approximate
Tue 11:36:00 PM -6.1783 -74.9055 353° North  Level FlightAware Approximate
Tue 11:37:00 PM -6.0598 -74.9212 353° North  Level FlightAware Approximate
Tue 11:38:00 PM -5.9413 -74.9369 353° North  Level FlightAware Approximate
Tue 11:39:00 PM -5.8229 -74.9526 353° North  Level FlightAware Approximate
Tue 11:40:00 PM -5.7044 -74.9682 353° North  Level FlightAware Approximate
Tue 11:41:00 PM -5.5859 -74.9839 353° North  Level FlightAware Approximate
Tue 11:42:00 PM -5.4674 -74.9995 353° North  Level FlightAware Approximate
Tue 11:43:00 PM -5.3489 -75.0151 353° North  Level FlightAware Approximate
Tue 11:44:00 PM -5.2304 -75.0308 353° North  Level FlightAware Approximate
Tue 11:45:00 PM -5.1123 -75.0463 353° North  Level FlightAware Approximate
Tue 11:46:00 PM -4.9942 -75.0619 353° North  Level FlightAware Approximate
Tue 11:47:00 PM -4.8761 -75.0775 353° North  Level FlightAware Approximate
Tue 11:48:00 PM -4.7580 -75.0930 353° North  Level FlightAware Approximate
Tue 11:49:00 PM -4.6400 -75.1086 353° North  Level FlightAware Approximate
Tue 11:50:00 PM -4.5219 -75.1241 353° North  Level FlightAware Approximate
Tue 11:51:00 PM -4.4038 -75.1397 353° North  Level FlightAware Approximate
Tue 11:52:00 PM -4.2857 -75.1552 353° North  Level FlightAware Approximate
Tue 11:53:00 PM -4.1676 -75.1707 353° North  Level FlightAware Approximate
Tue 11:54:00 PM -4.0495 -75.1863 353° North  Level FlightAware Approximate
Tue 11:55:00 PM -3.9314 -75.2018 353° North  Level FlightAware Approximate
Tue 11:56:00 PM -3.8133 -75.2173 353° North  Level FlightAware Approximate
Tue 11:57:00 PM -3.6952 -75.2328 353° North  Level FlightAware Approximate
Tue 11:58:00 PM -3.5772 -75.2483 353° North  Level FlightAware Approximate
Tue 11:59:00 PM -3.4591 -75.2638 353° North  Level FlightAware Approximate
Wed 12:00:00 AM -3.3410 -75.2793 353° North  Level FlightAware Approximate
Wed 12:01:00 AM -3.2229 -75.2948 353° North  Level FlightAware Approximate
Wed 12:02:00 AM -3.1048 -75.3103 353° North  Level FlightAware Approximate
Wed 12:03:00 AM -2.9867 -75.3258 353° North  Level FlightAware Approximate
Wed 12:04:00 AM -2.8686 -75.3413 353° North  Level FlightAware Approximate
Wed 12:05:00 AM -2.7505 -75.3568 353° North  Level FlightAware Approximate
Wed 12:06:00 AM -2.6324 -75.3723 353° North  Level FlightAware Approximate
Wed 12:07:00 AM -2.5143 -75.3877 353° North  Level FlightAware Approximate
Wed 12:08:00 AM -2.3963 -75.4032 353° North  Level FlightAware Approximate
Wed 12:09:00 AM -2.2782 -75.4187 353° North  Level FlightAware Approximate
Wed 12:10:00 AM -2.1601 -75.4342 353° North  Level FlightAware Approximate
Wed 12:11:00 AM -2.0420 -75.4496 353° North  Level FlightAware Approximate
Wed 12:12:00 AM -1.9239 -75.4651 353° North  Level FlightAware Approximate
Wed 12:13:00 AM -1.8058 -75.4805 353° North  Level FlightAware Approximate
Wed 12:14:00 AM -1.6877 -75.4960 353° North  Level FlightAware Approximate
Wed 12:15:00 AM -1.5696 -75.5115 353° North  Level FlightAware Approximate
Wed 12:16:00 AM -1.4515 -75.5269 353° North  Level FlightAware Approximate
Wed 12:17:00 AM -1.3334 -75.5424 353° North  Level FlightAware Approximate
Wed 12:18:00 AM -1.2153 -75.5578 353° North  Level FlightAware Approximate
Wed 12:19:00 AM -1.0972 -75.5733 353° North  Level FlightAware Approximate
Wed 12:20:00 AM -0.9791 -75.5887 353° North  Level FlightAware Approximate
Wed 12:21:00 AM -0.8610 -75.6042 353° North  Level FlightAware Approximate
Wed 12:22:00 AM -0.7429 -75.6196 353° North  Level FlightAware Approximate
Wed 12:23:00 AM -0.6248 -75.6351 353° North  Level FlightAware Approximate
Wed 12:24:00 AM -0.5067 -75.6505 353° North  Level FlightAware Approximate
Wed 12:25:00 AM -0.3886 -75.6660 353° North  Level FlightAware Approximate
Wed 12:26:00 AM -0.2705 -75.6814 353° North  Level FlightAware Approximate
Wed 12:27:00 AM -0.1524 -75.6969 353° North  Level FlightAware Approximate
Wed 12:28:00 AM -0.0343 -75.7123 353° North  Level FlightAware Approximate
Wed 12:29:00 AM 0.0838 -75.7278 353° North  Level FlightAware Approximate
Wed 12:30:00 AM 0.2019 -75.7432 353° North  Level FlightAware Approximate
Wed 12:31:00 AM 0.3200 -75.7587 353° North  Level FlightAware Approximate
Wed 12:32:00 AM 0.4381 -75.7741 353° North  Level FlightAware Approximate
Wed 12:33:00 AM 0.5562 -75.7896 353° North  Level FlightAware Approximate
Wed 12:34:00 AM 0.6743 -75.8050 353° North  Level FlightAware Approximate
Wed 12:35:00 AM 0.7924 -75.8205 353° North  Level FlightAware Approximate
Wed 12:36:00 AM 0.9105 -75.8359 353° North  Level FlightAware Approximate
Wed 12:37:00 AM 1.0286 -75.8514 353° North  Level FlightAware Approximate
Wed 12:38:00 AM 1.1467 -75.8668 353° North  Level FlightAware Approximate
Wed 12:39:00 AM 1.2648 -75.8823 353° North  Level FlightAware Approximate
Wed 12:40:00 AM 1.3829 -75.8977 353° North  Level FlightAware Approximate
Wed 12:41:00 AM 1.5010 -75.9132 353° North  Level FlightAware Approximate
Wed 12:42:00 AM 1.6191 -75.9286 353° North  Level FlightAware Approximate
Wed 12:43:00 AM 1.7372 -75.9441 353° North  Level FlightAware Approximate
Wed 12:44:00 AM 1.8553 -75.9596 353° North  Level FlightAware Approximate
Wed 12:45:00 AM 1.9734 -75.9750 353° North  Level FlightAware Approximate
Wed 12:46:00 AM 2.0915 -75.9905 353° North  Level FlightAware Approximate
Wed 12:47:00 AM 2.2096 -76.0060 353° North  Level FlightAware Approximate
Wed 12:48:00 AM 2.3277 -76.0214 353° North  Level FlightAware Approximate
Wed 12:49:00 AM 2.4458 -76.0369 353° North  Level FlightAware Approximate
Wed 12:50:00 AM 2.5639 -76.0524 353° North  Level FlightAware Approximate
Wed 12:51:00 AM 2.6816 -76.0678 353° North  Level FlightAware Approximate
Wed 12:52:00 AM 2.7993 -76.0832 353° North  Level FlightAware Approximate
Wed 12:53:00 AM 2.9169 -76.0988 352° North  Level FlightAware Approximate
Wed 12:54:00 AM 3.0346 -76.1145 352° North  Level FlightAware Approximate
Wed 12:55:00 AM 3.1522 -76.1301 352° North  Level FlightAware Approximate
Wed 12:56:00 AM 3.2699 -76.1457 352° North  Level FlightAware Approximate
Wed 12:57:00 AM 3.3876 -76.1613 352° North  Level FlightAware Approximate
Wed 12:58:00 AM 3.5052 -76.1770 352° North  Level FlightAware Approximate
Wed 12:59:00 AM 3.6229 -76.1926 352° North  Level FlightAware Approximate
Wed 01:00:00 AM 3.7406 -76.2083 352° North  Level FlightAware Approximate
Wed 01:01:00 AM 3.8582 -76.2239 352° North  Level FlightAware Approximate
Wed 01:02:00 AM 3.9759 -76.2396 352° North  Level FlightAware Approximate
Wed 01:03:00 AM 4.0936 -76.2552 352° North  Level FlightAware Approximate
Wed 01:04:00 AM 4.2112 -76.2709 352° North  Level FlightAware Approximate
Wed 01:05:00 AM 4.3289 -76.2866 352° North  Level FlightAware Approximate
Wed 01:06:00 AM 4.4465 -76.3022 352° North  Level FlightAware Approximate
Wed 01:07:00 AM 4.5642 -76.3179 352° North  Level FlightAware Approximate
Wed 01:08:00 AM 4.6819 -76.3336 352° North  Level FlightAware Approximate
Wed 01:09:00 AM 4.7995 -76.3493 352° North  Level FlightAware Approximate
Wed 01:10:00 AM 4.9172 -76.3650 352° North  Level FlightAware Approximate
Wed 01:11:00 AM 5.0349 -76.3807 352° North  Level FlightAware Approximate
Wed 01:12:00 AM 5.1525 -76.3964 352° North  Level FlightAware Approximate
Wed 01:13:00 AM 5.2702 -76.4121 352° North  Level FlightAware Approximate
Wed 01:14:00 AM 5.3878 -76.4278 352° North  Level FlightAware Approximate
Wed 01:15:00 AM 5.5055 -76.4435 352° North  Level FlightAware Approximate
Wed 01:16:00 AM 5.6231 -76.4592 352° North  Level FlightAware Approximate
Wed 01:17:00 AM 5.7408 -76.4750 352° North  Level FlightAware Approximate
Wed 01:18:00 AM 5.8585 -76.4907 352° North  Level FlightAware Approximate
Wed 01:19:00 AM 5.9761 -76.5064 352° North  Level FlightAware Approximate
Wed 01:20:00 AM 6.0938 -76.5222 352° North  Level FlightAware Approximate
Wed 01:21:00 AM 6.2115 -76.5379 352° North  Level FlightAware Approximate
Wed 01:22:00 AM 6.3291 -76.5537 352° North  Level FlightAware Approximate
Wed 01:23:00 AM 6.4468 -76.5695 352° North  Level FlightAware Approximate
Wed 01:24:00 AM 6.5644 -76.5852 353° North  Level FlightAware Approximate
Wed 01:25:00 AM 6.6821 -76.6008 353° North  Level FlightAware Approximate
Wed 01:26:00 AM 6.7998 -76.6164 353° North  Level FlightAware Approximate
Wed 01:27:00 AM 6.9175 -76.6320 353° North  Level FlightAware Approximate
Wed 01:28:00 AM 7.0352 -76.6475 353° North  Level FlightAware Approximate
Wed 01:29:00 AM 7.1528 -76.6631 353° North  Level FlightAware Approximate
Wed 01:30:00 AM 7.2705 -76.6787 353° North  Level FlightAware Approximate
Wed 01:31:00 AM 7.3882 -76.6943 353° North  Level FlightAware Approximate
Wed 01:32:00 AM 7.5059 -76.7100 353° North  Level FlightAware Approximate
Wed 01:33:00 AM 7.6236 -76.7256 353° North  Level FlightAware Approximate
Wed 01:34:00 AM 7.7412 -76.7412 353° North  Level FlightAware Approximate
Wed 01:35:00 AM 7.8589 -76.7568 352° North  Level FlightAware Approximate
Wed 01:36:00 AM 7.9766 -76.7725 352° North  Level FlightAware Approximate
Wed 01:37:00 AM 8.0943 -76.7881 352° North  Level FlightAware Approximate
Wed 01:38:00 AM 8.2120 -76.8038 352° North  Level FlightAware Approximate
Wed 01:39:00 AM 8.3296 -76.8195 352° North  Level FlightAware Approximate
Wed 01:40:00 AM 8.4473 -76.8352 352° North  Level FlightAware Approximate
Wed 01:41:00 AM 8.5650 -76.8509 352° North  Level FlightAware Approximate
Wed 01:42:00 AM 8.6827 -76.8666 352° North  Level FlightAware Approximate
Wed 01:43:00 AM 8.8004 -76.8823 352° North  Level FlightAware Approximate
Wed 01:44:00 AM 8.9180 -76.8980 352° North  Level FlightAware Approximate
Wed 01:45:00 AM 9.0357 -76.9137 352° North  Level FlightAware Approximate
Wed 01:46:00 AM 9.1532 -76.9294 352° North  Level FlightAware Approximate
Wed 01:47:00 AM 9.2707 -76.9451 352° North  Level FlightAware Approximate
Wed 01:48:00 AM 9.3881 -76.9609 352° North  Level FlightAware Approximate
Wed 01:49:00 AM 9.5056 -76.9766 352° North  Level FlightAware Approximate
Wed 01:50:00 AM 9.6231 -76.9923 352° North  Level FlightAware Approximate
Wed 01:51:00 AM 9.7406 -77.0081 352° North  Level FlightAware Approximate
Wed 01:52:00 AM 9.8580 -77.0239 352° North  Level FlightAware Approximate
Wed 01:53:00 AM 9.9755 -77.0397 352° North  Level FlightAware Approximate
Wed 01:54:00 AM 10.0930 -77.0555 352° North  Level FlightAware Approximate
Wed 01:55:00 AM 10.2104 -77.0713 352° North  Level FlightAware Approximate
Wed 01:56:00 AM 10.3279 -77.0872 352° North  Level FlightAware Approximate
Wed 01:57:00 AM 10.4453 -77.1037 352° North  Level FlightAware Approximate
Wed 01:58:00 AM 10.5626 -77.1201 352° North  Level FlightAware Approximate
Wed 01:59:00 AM 10.6800 -77.1366 352° North  Level FlightAware Approximate
Wed 02:00:00 AM 10.7974 -77.1530 352° North  Level FlightAware Approximate
Wed 02:01:00 AM 10.9148 -77.1695 352° North  Level FlightAware Approximate
Wed 02:02:00 AM 11.0322 -77.1860 352° North  Level FlightAware Approximate
Wed 02:03:00 AM 11.1496 -77.2025 352° North  Level FlightAware Approximate
Wed 02:04:00 AM 11.2669 -77.2190 352° North  Level FlightAware Approximate
Wed 02:05:00 AM 11.3844 -77.2349 352° North  Level FlightAware Approximate
Wed 02:06:00 AM 11.5019 -77.2509 352° North  Level FlightAware Approximate
Wed 02:07:00 AM 11.6193 -77.2669 352° North  Level FlightAware Approximate
Wed 02:08:00 AM 11.7368 -77.2829 352° North  Level FlightAware Approximate
Wed 02:09:00 AM 11.8542 -77.2989 352° North  Level FlightAware Approximate
Wed 02:10:00 AM 11.9717 -77.3149 352° North  Level FlightAware Approximate
Wed 02:11:00 AM 12.0891 -77.3309 352° North  Level FlightAware Approximate
Wed 02:12:00 AM 12.2066 -77.3470 352° North  Level FlightAware Approximate
Wed 02:13:00 AM 12.3240 -77.3631 352° North  Level FlightAware Approximate
Wed 02:14:00 AM 12.4415 -77.3791 352° North  Level FlightAware Approximate
Wed 02:15:00 AM 12.5589 -77.3952 352° North  Level FlightAware Approximate
Wed 02:16:00 AM 12.6764 -77.4113 352° North  Level FlightAware Approximate
Wed 02:17:00 AM 12.7938 -77.4275 352° North  Level FlightAware Approximate
Wed 02:18:00 AM 12.9113 -77.4436 352° North  Level FlightAware Approximate
Wed 02:19:00 AM 13.0287 -77.4597 352° North  Level FlightAware Approximate
Wed 02:20:00 AM 13.1461 -77.4759 352° North  Level FlightAware Approximate
Wed 02:21:00 AM 13.2636 -77.4921 352° North  Level FlightAware Approximate
Wed 02:22:00 AM 13.3810 -77.5083 352° North  Level FlightAware Approximate
Wed 02:23:00 AM 13.4985 -77.5245 352° North  Level FlightAware Approximate
Wed 02:24:00 AM 13.6159 -77.5407 352° North  Level FlightAware Approximate
Wed 02:25:00 AM 13.7333 -77.5570 352° North  Level FlightAware Approximate
Wed 02:26:00 AM 13.8508 -77.5733 352° North  Level FlightAware Approximate
Wed 02:27:00 AM 13.9682 -77.5895 352° North  Level FlightAware Approximate
Wed 02:28:00 AM 14.0857 -77.6058 352° North  Level FlightAware Approximate
Wed 02:29:00 AM 14.2031 -77.6222 352° North  Level FlightAware Approximate
Wed 02:30:00 AM 14.3205 -77.6385 352° North  Level FlightAware Approximate
Wed 02:31:00 AM 14.4379 -77.6548 352° North  Level FlightAware Approximate
Wed 02:32:00 AM 14.5554 -77.6712 352° North  Level FlightAware Approximate
Wed 02:33:00 AM 14.6728 -77.6876 352° North  Level FlightAware Approximate
Wed 02:34:00 AM 14.7902 -77.7040 352° North  Level FlightAware Approximate
Wed 02:35:00 AM 14.9077 -77.7204 352° North  Level FlightAware Approximate
Wed 02:36:00 AM 15.0251 -77.7368 352° North  Level FlightAware Approximate
Wed 02:37:00 AM 15.1425 -77.7532 352° North  Level FlightAware Approximate
Wed 02:38:00 AM 15.2599 -77.7697 352° North  Level FlightAware Approximate
Wed 02:39:00 AM 15.3774 -77.7861 352° North  Level FlightAware Approximate
Wed 02:40:00 AM 15.4948 -77.8026 352° North  Level FlightAware Approximate
Wed 02:41:00 AM 15.6122 -77.8190 352° North  Level FlightAware Approximate
Wed 02:42:00 AM 15.7296 -77.8355 352° North  Level FlightAware Approximate
Wed 02:43:00 AM 15.8471 -77.8521 352° North  Level FlightAware Approximate
Wed 02:44:00 AM 15.9645 -77.8686 352° North  Level FlightAware Approximate
Wed 02:45:00 AM 16.0819 -77.8851 352° North  Level FlightAware Approximate
Wed 02:46:00 AM 16.1993 -77.9017 352° North  Level FlightAware Approximate
Wed 02:47:00 AM 16.3167 -77.9183 352° North  Level FlightAware Approximate
Wed 02:48:00 AM 16.4342 -77.9349 352° North  Level FlightAware Approximate
Wed 02:49:00 AM 16.5516 -77.9515 352° North  Level FlightAware Approximate
Wed 02:50:00 AM 16.6690 -77.9682 352° North  Level FlightAware Approximate
Wed 02:51:00 AM 16.7864 -77.9849 352° North  Level FlightAware Approximate
Wed 02:52:00 AM 16.9038 -78.0016 352° North  Level FlightAware Approximate
Wed 02:53:00 AM 17.0212 -78.0183 352° North  Level FlightAware Approximate
Wed 02:54:00 AM 17.1386 -78.0350 352° North  Level FlightAware Approximate
Wed 02:55:00 AM 17.2561 -78.0518 352° North  Level FlightAware Approximate
Wed 02:56:00 AM 17.3735 -78.0686 352° North  Level FlightAware Approximate
Wed 02:57:00 AM 17.4909 -78.0854 352° North  Level FlightAware Approximate
Wed 02:58:00 AM 17.6083 -78.1022 352° North  Level FlightAware Approximate
Wed 02:59:00 AM 17.7257 -78.1190 352° North  Level FlightAware Approximate
Wed 03:00:00 AM 17.8431 -78.1359 352° North  Level FlightAware Approximate
Wed 03:01:00 AM 17.9605 -78.1528 352° North  Level FlightAware Approximate
Wed 03:02:00 AM 18.0779 -78.1697 352° North  Level FlightAware Approximate
Wed 03:03:00 AM 18.1953 -78.1866 352° North  Level FlightAware Approximate
Wed 03:04:00 AM 18.3127 -78.2036 352° North  Level FlightAware Approximate
Wed 03:05:00 AM 18.4300 -78.2206 352° North  Level FlightAware Approximate
Wed 03:06:00 AM 18.5474 -78.2376 352° North  Level FlightAware Approximate
Wed 03:07:00 AM 18.6648 -78.2546 352° North  Level FlightAware Approximate
Wed 03:08:00 AM 18.7822 -78.2717 352° North  Level FlightAware Approximate
Wed 03:09:00 AM 18.8996 -78.2887 352° North  Level FlightAware Approximate
Wed 03:10:00 AM 19.0170 -78.3058 352° North  Level FlightAware Approximate
Wed 03:11:00 AM 19.1344 -78.3230 352° North  Level FlightAware Approximate
Wed 03:12:00 AM 19.2518 -78.3401 352° North  Level FlightAware Approximate
Wed 03:13:00 AM 19.3691 -78.3573 352° North  Level FlightAware Approximate
Wed 03:14:00 AM 19.4865 -78.3745 352° North  Level FlightAware Approximate
Wed 03:15:00 AM 19.6039 -78.3917 352° North  Level FlightAware Approximate
Wed 03:16:00 AM 19.7213 -78.4089 352° North  Level FlightAware Approximate
Wed 03:17:00 AM 19.8386 -78.4262 352° North  Level FlightAware Approximate
Wed 03:18:00 AM 19.9560 -78.4435 352° North  Level FlightAware Approximate
Wed 03:19:00 AM 20.0734 -78.4610 352° North  Level FlightAware Approximate
Wed 03:20:00 AM 20.1907 -78.4786 352° North  Level FlightAware Approximate
Wed 03:21:00 AM 20.3080 -78.4963 352° North  Level FlightAware Approximate
Wed 03:22:00 AM 20.4254 -78.5140 352° North  Level FlightAware Approximate
Wed 03:23:00 AM 20.5427 -78.5317 352° North  Level FlightAware Approximate
Wed 03:24:00 AM 20.6600 -78.5494 352° North  Level FlightAware Approximate
Wed 03:25:00 AM 20.7773 -78.5672 352° North  Level FlightAware Approximate
Wed 03:26:00 AM 20.8946 -78.5850 352° North  Level FlightAware Approximate
Wed 03:27:00 AM 21.0120 -78.6028 352° North  Level FlightAware Approximate
Wed 03:28:00 AM 21.1293 -78.6206 352° North  Level FlightAware Approximate
Wed 03:29:00 AM 21.2466 -78.6385 352° North  Level FlightAware Approximate
Wed 03:30:00 AM 21.3639 -78.6564 352° North  Level FlightAware Approximate
Wed 03:31:00 AM 21.4812 -78.6743 352° North  Level FlightAware Approximate
Wed 03:32:00 AM 21.5985 -78.6923 352° North  Level FlightAware Approximate
Wed 03:33:00 AM 21.7159 -78.7103 352° North  Level FlightAware Approximate
Wed 03:34:00 AM 21.8332 -78.7283 352° North  Level FlightAware Approximate
Wed 03:35:00 AM 21.9505 -78.7463 352° North  Level FlightAware Approximate
Wed 03:36:00 AM 22.0678 -78.7644 352° North  Level FlightAware Approximate
Wed 03:37:00 AM 22.1851 -78.7825 352° North  Level FlightAware Approximate
Wed 03:38:00 AM 22.3024 -78.8006 352° North  Level FlightAware Approximate
Wed 03:39:00 AM 22.4247 -78.8196 352° North  Level FlightAware Approximate
Wed 03:40:00 AM 22.5470 -78.8386 352° North  Level FlightAware Approximate
Wed 03:41:00 AM 22.6693 -78.8576 352° North  Level FlightAware Approximate
Wed 03:42:00 AM 22.7916 -78.8766 352° North  Level FlightAware Approximate
Wed 03:43:00 AM 22.9139 -78.8957 352° North  Level FlightAware Approximate
Wed 03:44:00 AM 23.0362 -78.9148 352° North  Level FlightAware Approximate
Wed 03:45:00 AM 23.1585 -78.9340 352° North  Level FlightAware Approximate
Wed 03:46:00 AM 23.2808 -78.9531 352° North  Level FlightAware Approximate
Wed 03:47:00 AM 23.4030 -78.9724 352° North  Level FlightAware Approximate
Wed 03:48:00 AM 23.5253 -78.9916 352° North  Level FlightAware Approximate
Wed 03:49:00 AM 23.6476 -79.0109 352° North  Level FlightAware Approximate
Wed 03:50:00 AM 23.7699 -79.0302 352° North  Level FlightAware Approximate
Wed 03:51:00 AM 23.8922 -79.0496 352° North  Level FlightAware Approximate
Wed 03:52:00 AM 24.0108 -79.0775 318° Northwest  Level FlightAware Approximate
Wed 03:53:00 AM 24.1119 -79.1546 328° Northwest  Level FlightAware Approximate
Wed 03:54:00 AM 24.2162 -79.2272 328° Northwest  Level FlightAware Approximate
Wed 03:55:00 AM 24.3204 -79.2999 328° Northwest  Level FlightAware Approximate
Wed 03:56:00 AM 24.4247 -79.3728 328° Northwest  Level FlightAware Approximate
Wed 03:57:00 AM 24.5289 -79.4457 328° Northwest  Level FlightAware Approximate
Wed 03:58:00 AM 24.6330 -79.5188 327° Northwest  Level FlightAware Approximate
Wed 03:59:00 AM 24.7371 -79.5920 327° Northwest  Level FlightAware Approximate
Wed 04:00:00 AM 24.8412 -79.6654 327° Northwest  Level FlightAware Approximate
Wed 04:01:00 AM 24.9459 -79.7377 328° Northwest  Level FlightAware Approximate
Wed 04:02:00 AM 25.0508 -79.8098 328° Northwest  Level FlightAware Approximate
Wed 04:03:00 AM 25.1548 -79.8833 325° Northwest  Level FlightAware Approximate
Wed 04:04:00 AM 25.2559 -79.9619 325° Northwest  Level FlightAware Approximate
Wed 04:05:00 AM 25.3600 -80.0354 328° Northwest  Level FlightAware Approximate
Wed 04:06:00 AM 25.4652 -80.1071 328° Northwest  Level FlightAware Approximate
Wed 04:07:00 AM 25.5704 -80.1789 328° Northwest  Level FlightAware Approximate
Wed 04:08:00 AM 25.6749 -80.2520 326° Northwest  Level FlightAware Approximate
Wed 04:08:21 AM 23.2572 -79.0864 14° North 465 535 38,000  Level Miami Center
Wed 04:09:00 AM 25.7773 -80.3288 326° Northwest  Level FlightAware Approximate
Wed 04:09:21 AM 23.3867 -79.0864 360° North 465 535 38,000  Level Miami Center
Wed 04:10:00 AM 25.8965 -80.3058 14° North  Level FlightAware Approximate
Wed 04:10:22 AM 23.5058 -79.0839 North 452 520 38,000  Level Miami Center
Wed 04:11:00 AM 26.0161 -80.2717 14° North  Level FlightAware Approximate
Wed 04:11:23 AM 23.6292 -79.0792 North 436 502 38,000  Level Miami Center
Wed 04:12:00 AM 26.1358 -80.2374 14° North  Level FlightAware Approximate
Wed 04:12:23 AM 23.7483 -79.0789 360° North 429 494 38,000  Level Miami Center
Wed 04:13:00 AM 26.2555 -80.2033 14° North  Level FlightAware Approximate
Wed 04:13:22 AM 23.8694 -79.0742 North 429 494 38,000  Level Miami Center
Wed 04:14:23 AM 23.9906 -79.0786 358° North 429 494 38,000  Level Miami Center
Wed 04:15:21 AM 24.0942 -79.1397 332° Northwest 417 480 38,000  Level Miami Center
Wed 04:16:21 AM 24.2022 -79.1828 340° North 410 472 38,000  Level Miami Center
Wed 04:17:21 AM 24.3186 -79.2189 344° North 415 478 38,000  Level Miami Center
Wed 04:18:22 AM 24.4331 -79.2600 342° North 426 490 38,000  Level Miami Center
Wed 04:19:21 AM 24.5453 -79.2986 343° North 426 490 38,000  Level Miami Center
Wed 04:20:21 AM 24.6572 -79.3397 342° North 421 484 38,000  Level Miami Center
Wed 04:21:21 AM 24.7714 -79.3808 342° North 421 484 38,000  Level Miami Center
Wed 04:22:22 AM 24.8836 -79.4222 342° North 421 484 38,000  Level Miami Center
Wed 04:23:21 AM 24.9958 -79.4589 344° North 421 484 38,000  Level Miami Center
Wed 04:24:21 AM 25.1058 -79.5025 340° North 421 484 38,000  Level Miami Center
Wed 04:25:21 AM 25.2181 -79.5417 342° North 421 484 38,000  Level Miami Center
Wed 04:26:23 AM 25.3278 -79.5856 340° North 421 484 38,000  Level Miami Center
Wed 04:27:21 AM 25.4400 -79.6272 341° North 421 484 38,000  Level Miami Center
Wed 04:28:21 AM 25.5542 -79.6642 344° North 421 484 38,000  Level Miami Center
Wed 04:29:25 AM 25.6661 -79.7083 340° North 421 484 38,000  Level Miami Center
Wed 04:30:23 AM 25.7761 -79.7503 341° North 421 484 38,000  Level Miami Center
Wed 04:31:21 AM 25.8942 -79.7922 342° North 421 484 38,000  Level Miami Center
Wed 04:32:21 AM 26.0042 -79.8319 342° North 421 484 38,000  Level Miami Center
Wed 04:33:21 AM 26.1244 -79.8767 342° North 428 493 38,000  Level Miami Center
Wed 04:34:22 AM 26.2403 -79.9236 340° North 428 493 38,000  Level Miami Center
Wed 04:35:24 AM 26.3647 -79.9683 342° North 433 498 38,000  Level Miami Center
Wed 04:36:24 AM 26.4808 -80.0108 342° North 433 498 38,000  Level Miami Center
Wed 04:37:22 AM 26.5947 -80.0558 341° North 433 498 38,000 151 Level Miami Center
Wed 04:38:23 AM 26.7128 -80.0986 342° North 441 507 38,300 496 Climbing Miami Center
Wed 04:39:23 AM 26.8267 -80.1414 341° North 435 501 39,000 347 Climbing Miami Center
Wed 04:40:24 AM 26.9425 -80.1889 340° North 435 501 39,000  Level Miami Center
Wed 04:41:23 AM 27.0586 -80.2342 341° North 435 501 39,000  Level Miami Center
Wed 04:42:22 AM 27.1725 -80.2747 342° North 435 501 39,000  Level Miami Center
Wed 04:43:21 AM 27.2903 -80.3203 341° North 435 501 39,000  Level Miami Center
Wed 04:44:23 AM 27.4042 -80.3633 341° North 435 501 39,000  Level Miami Center
Wed 04:45:23 AM 27.5200 -80.4069 342° North 440 506 39,000  Level Miami Center
Wed 04:46:21 AM 27.6358 -80.4503 342° North 440 506 39,000  Level Miami Center
Wed 04:47:22 AM 27.7558 -80.4961 341° North 440 506 39,000  Level Miami Center
Wed 04:48:23 AM 27.8717 -80.5375 342° North 440 506 39,000  Level Miami Center
Wed 04:49:23 AM 27.9894 -80.5836 341° North 440 506 39,000  Level Miami Center
Wed 04:50:24 AM 28.1050 -80.6275 341° North 440 506 39,000  Level Miami Center
Wed 04:51:23 AM 28.2228 -80.6739 341° North 440 506 39,000  Level Miami Center
Wed 04:53:09 AM 28.4242 -80.7542 341° North 446 513 39,000  Level Jacksonville Center
Wed 04:54:09 AM 28.5419 -80.7964 343° North 451 519 39,000  Level Jacksonville Center
Wed 04:55:09 AM 28.6594 -80.8436 341° North 451 519 39,000  Level Jacksonville Center
Wed 04:56:09 AM 28.7750 -80.8886 341° North 446 513 39,000  Level Jacksonville Center
Wed 04:57:09 AM 28.8925 -80.9361 341° North 446 513 39,000  Level Jacksonville Center
Wed 04:58:09 AM 29.0081 -80.9883 338° Northwest 446 513 39,000  Level Jacksonville Center
Wed 04:59:09 AM 29.1217 -81.0458 336° Northwest 446 513 39,000  Level Jacksonville Center
Wed 05:00:09 AM 29.2331 -81.1008 337° Northwest 439 505 39,000  Level Jacksonville Center
Wed 05:01:09 AM 29.3467 -81.1558 337° Northwest 439 505 39,000  Level Jacksonville Center
Wed 05:02:09 AM 29.4622 -81.2133 337° Northwest 439 505 39,000  Level Jacksonville Center
Wed 05:03:09 AM 29.5819 -81.2783 335° Northwest 427 491 39,000  Level Jacksonville Center
Wed 05:04:09 AM 29.6956 -81.3361 336° Northwest 433 498 39,000  Level Jacksonville Center
Wed 05:05:09 AM 29.7983 -81.3872 337° Northwest 443 510 39,000  Level Jacksonville Center
Wed 05:06:09 AM 29.9117 -81.4428 337° Northwest 443 510 39,000  Level Jacksonville Center
Wed 05:07:09 AM 30.0250 -81.5011 336° Northwest 443 510 39,000  Level Jacksonville Center
Wed 05:08:09 AM 30.1383 -81.5572 337° Northwest 443 510 39,000  Level Jacksonville Center
Wed 05:09:09 AM 30.2539 -81.6156 336° Northwest 443 510 39,000  Level Jacksonville Center
Wed 05:10:09 AM 30.3672 -81.6694 338° Northwest 443 510 39,000  Level Jacksonville Center
Wed 05:11:09 AM 30.4806 -81.7331 334° Northwest 438 504 39,000  Level Jacksonville Center
Wed 05:12:09 AM 30.5978 -81.7919 337° Northwest 445 512 39,000  Level Jacksonville Center
Wed 05:13:09 AM 30.7111 -81.8536 335° Northwest 450 518 39,000  Level Jacksonville Center
Wed 05:14:09 AM 30.8222 -81.9128 335° Northwest 445 512 39,000  Level Jacksonville Center
Wed 05:15:09 AM 30.9397 -81.9722 337° Northwest 450 518 39,000  Level Jacksonville Center
Wed 05:16:09 AM 31.0550 -82.0317 336° Northwest 450 518 39,000  Level Jacksonville Center
Wed 05:17:09 AM 31.1681 -82.0936 335° Northwest 445 512 39,000  Level Jacksonville Center
Wed 05:18:09 AM 31.2833 -82.1536 336° Northwest 445 512 39,000  Level Jacksonville Center
Wed 05:19:09 AM 31.3983 -82.2136 336° Northwest 445 512 39,000  Level Jacksonville Center
Wed 05:20:56 AM 31.6136 -82.3244 336° Northwest 464 534 39,000  Level Atlanta Center
Wed 05:21:56 AM 31.7272 -82.3833 336° Northwest 457 526 39,000  Level Atlanta Center
Wed 05:22:56 AM 31.8386 -82.4547 331° Northwest 457 526 39,000  Level Atlanta Center
Wed 05:23:56 AM 31.9400 -82.5483 322° Northwest 457 526 39,000  Level Atlanta Center
Wed 05:24:56 AM 32.0372 -82.6447 320° Northwest 457 526 39,000 -50 Level Atlanta Center
Wed 05:25:56 AM 32.1364 -82.7389 321° Northwest 462 532 38,900 -700 Descending Atlanta Center
Wed 05:26:56 AM 32.2356 -82.8406 319° Northwest 462 532 37,600 -1,250 Descending Atlanta Center
Wed 05:27:56 AM 32.3344 -82.9375 320° Northwest 462 532 36,400 -1,150 Descending Atlanta Center
Wed 05:28:56 AM 32.4314 -83.0322 320° Northwest 462 532 35,300 -1,100 Descending Atlanta Center
Wed 05:29:56 AM 32.5300 -83.1297 320° Northwest 462 532 34,200 -1,200 Descending Atlanta Center
Wed 05:30:56 AM 32.6289 -83.2275 320° Northwest 462 532 32,900 -2,550 Descending Atlanta Center
Wed 05:31:56 AM 32.7275 -83.3228 321° Northwest 462 532 29,100 -3,450 Descending Atlanta Center
Wed 05:32:56 AM 32.8325 -83.4283 320° Northwest 468 539 26,000 -3,050 Descending Atlanta Center
Wed 05:33:56 AM 32.9333 -83.5289 320° Northwest 468 539 23,000 -2,950 Descending Atlanta Center
Wed 05:34:56 AM 33.0317 -83.6225 321° Northwest 468 539 20,100 -2,850 Descending Atlanta Center
Wed 05:35:56 AM 33.1111 -83.7064 319° Northwest 445 512 17,300 -2,889 Descending Atlanta Center
Wed 05:36:44 AM 33.1833 -83.7833 318° Northwest 403 464 14,900 -1,833 Descending Atlanta TRACON
Wed 05:37:44 AM 33.2667 -83.8833 315° West 389 448 14,000 -600 Descending Atlanta TRACON
Wed 05:38:44 AM 33.3333 -83.9833 309° West 389 448 13,700 -1,200 Descending Atlanta TRACON
Wed 05:39:44 AM 33.3833 -84.0833 301° West 378 435 11,600 -1,227 Descending Atlanta TRACON
Wed 05:40:56 AM 33.4331 -84.2206 294° West 372 428 11,000 -364 Descending Atlanta Center
Wed 05:41:56 AM 33.4703 -84.3303 292° West 372 428 10,800 -1,095 Descending Atlanta Center
Wed 05:43:02 AM 33.5000 -84.4333 289° West 287 330 8,700 -2,143 Descending Atlanta TRACON
Wed 05:44:02 AM 33.5333 -84.5167 296° West 286 329 6,300 -2,263 Descending Atlanta TRACON
Wed 05:44:56 AM 33.5333 -84.5833 270° West 260 299 4,400 -1,579 Descending Atlanta TRACON
Wed 05:45:56 AM 33.5833 -84.6333 320° Northwest 252 290 3,300 -667 Descending Atlanta TRACON
Wed 05:47:02 AM 33.6167 -84.5833 51° Northeast 240 276 3,000 -273 Descending Atlanta TRACON

Login

Don't have an account? Register now (free) for customized features, flight alerts, and more!